sensor_id;sensor_type;location;lat;lon;timestamp;P1;durP1;ratioP1;P2;durP2;ratioP2
24547;SDS011;12713;51.624;4.924;2023-05-07T00:01:51;13.32;;;10.13;;
24547;SDS011;12713;51.624;4.924;2023-05-07T00:04:18;11.13;;;9.93;;
24547;SDS011;12713;51.624;4.924;2023-05-07T00:06:44;12.98;;;10.57;;
24547;SDS011;12713;51.624;4.924;2023-05-07T00:09:10;17.58;;;14.50;;
24547;SDS011;12713;51.624;4.924;2023-05-07T00:11:36;10.25;;;8.85;;
24547;SDS011;12713;51.624;4.924;2023-05-07T00:14:02;10.82;;;8.25;;
24547;SDS011;12713;51.624;4.924;2023-05-07T00:16:28;11.07;;;9.82;;
24547;SDS011;12713;51.624;4.924;2023-05-07T00:18:54;16.70;;;12.25;;
24547;SDS011;12713;51.624;4.924;2023-05-07T00:21:20;16.05;;;11.25;;
24547;SDS011;12713;51.624;4.924;2023-05-07T00:23:46;16.13;;;11.73;;
24547;SDS011;12713;51.624;4.924;2023-05-07T00:26:12;15.10;;;12.25;;
24547;SDS011;12713;51.624;4.924;2023-05-07T00:28:38;15.02;;;10.55;;
24547;SDS011;12713;51.624;4.924;2023-05-07T00:31:04;16.25;;;14.38;;
24547;SDS011;12713;51.624;4.924;2023-05-07T00:33:30;14.13;;;12.32;;
24547;SDS011;12713;51.624;4.924;2023-05-07T00:35:56;16.15;;;11.73;;
24547;SDS011;12713;51.624;4.924;2023-05-07T00:38:22;15.00;;;13.50;;
24547;SDS011;12713;51.624;4.924;2023-05-07T00:40:48;17.20;;;14.07;;
24547;SDS011;12713;51.624;4.924;2023-05-07T00:43:15;17.50;;;14.27;;
24547;SDS011;12713;51.624;4.924;2023-05-07T00:45:42;14.05;;;10.77;;
24547;SDS011;12713;51.624;4.924;2023-05-07T00:48:08;16.02;;;13.57;;
24547;SDS011;12713;51.624;4.924;2023-05-07T00:50:34;16.45;;;12.50;;
24547;SDS011;12713;51.624;4.924;2023-05-07T00:53:00;16.98;;;14.00;;
24547;SDS011;12713;51.624;4.924;2023-05-07T00:55:26;15.82;;;13.73;;
24547;SDS011;12713;51.624;4.924;2023-05-07T00:57:52;10.80;;;9.70;;
24547;SDS011;12713;51.624;4.924;2023-05-07T01:00:19;13.23;;;10.27;;
24547;SDS011;12713;51.624;4.924;2023-05-07T01:02:45;8.68;;;7.32;;
24547;SDS011;12713;51.624;4.924;2023-05-07T01:05:12;9.77;;;8.73;;
24547;SDS011;12713;51.624;4.924;2023-05-07T01:07:39;11.60;;;9.43;;
24547;SDS011;12713;51.624;4.924;2023-05-07T01:10:06;8.80;;;7.03;;
24547;SDS011;12713;51.624;4.924;2023-05-07T01:12:32;11.35;;;9.73;;
24547;SDS011;12713;51.624;4.924;2023-05-07T01:14:58;10.82;;;9.73;;
24547;SDS011;12713;51.624;4.924;2023-05-07T01:17:24;14.18;;;9.18;;
24547;SDS011;12713;51.624;4.924;2023-05-07T01:19:50;13.02;;;10.68;;
24547;SDS011;12713;51.624;4.924;2023-05-07T01:22:23;11.30;;;9.30;;
24547;SDS011;12713;51.624;4.924;2023-05-07T01:24:52;12.73;;;10.70;;
24547;SDS011;12713;51.624;4.924;2023-05-07T01:27:21;12.45;;;10.07;;
24547;SDS011;12713;51.624;4.924;2023-05-07T01:29:47;11.55;;;9.82;;
24547;SDS011;12713;51.624;4.924;2023-05-07T01:32:12;9.05;;;6.85;;
24547;SDS011;12713;51.624;4.924;2023-05-07T01:34:39;12.02;;;8.15;;
24547;SDS011;12713;51.624;4.924;2023-05-07T01:37:05;10.25;;;9.18;;
24547;SDS011;12713;51.624;4.924;2023-05-07T01:39:31;9.90;;;8.30;;
24547;SDS011;12713;51.624;4.924;2023-05-07T01:41:58;12.43;;;8.70;;
24547;SDS011;12713;51.624;4.924;2023-05-07T01:44:24;11.60;;;8.20;;
24547;SDS011;12713;51.624;4.924;2023-05-07T01:46:52;9.00;;;7.63;;
24547;SDS011;12713;51.624;4.924;2023-05-07T01:49:19;10.82;;;8.70;;
24547;SDS011;12713;51.624;4.924;2023-05-07T01:51:46;9.43;;;8.40;;
24547;SDS011;12713;51.624;4.924;2023-05-07T01:54:12;12.07;;;10.23;;
24547;SDS011;12713;51.624;4.924;2023-05-07T01:56:38;14.60;;;8.85;;
24547;SDS011;12713;51.624;4.924;2023-05-07T01:59:04;10.38;;;8.73;;
24547;SDS011;12713;51.624;4.924;2023-05-07T02:01:30;8.07;;;7.28;;
24547;SDS011;12713;51.624;4.924;2023-05-07T02:03:56;9.90;;;8.90;;
24547;SDS011;12713;51.624;4.924;2023-05-07T02:06:22;10.35;;;8.65;;
24547;SDS011;12713;51.624;4.924;2023-05-07T02:08:48;13.70;;;9.80;;
24547;SDS011;12713;51.624;4.924;2023-05-07T02:11:14;14.73;;;10.35;;
24547;SDS011;12713;51.624;4.924;2023-05-07T02:13:40;10.90;;;8.35;;
24547;SDS011;12713;51.624;4.924;2023-05-07T02:16:06;9.35;;;7.68;;
24547;SDS011;12713;51.624;4.924;2023-05-07T02:18:33;10.20;;;8.50;;
24547;SDS011;12713;51.624;4.924;2023-05-07T02:20:59;8.48;;;7.57;;
24547;SDS011;12713;51.624;4.924;2023-05-07T02:23:25;10.15;;;8.23;;
24547;SDS011;12713;51.624;4.924;2023-05-07T02:25:51;10.57;;;9.25;;
24547;SDS011;12713;51.624;4.924;2023-05-07T02:28:17;12.90;;;10.80;;
24547;SDS011;12713;51.624;4.924;2023-05-07T02:30:43;13.48;;;9.63;;
24547;SDS011;12713;51.624;4.924;2023-05-07T02:33:09;11.85;;;10.43;;
24547;SDS011;12713;51.624;4.924;2023-05-07T02:35:37;12.63;;;8.30;;
24547;SDS011;12713;51.624;4.924;2023-05-07T02:38:06;12.57;;;10.80;;
24547;SDS011;12713;51.624;4.924;2023-05-07T02:40:32;13.60;;;11.15;;
24547;SDS011;12713;51.624;4.924;2023-05-07T02:43:03;9.45;;;7.57;;
24547;SDS011;12713;51.624;4.924;2023-05-07T02:45:30;12.32;;;8.52;;
24547;SDS011;12713;51.624;4.924;2023-05-07T02:47:56;16.27;;;11.27;;
24547;SDS011;12713;51.624;4.924;2023-05-07T02:50:22;10.65;;;8.30;;
24547;SDS011;12713;51.624;4.924;2023-05-07T02:52:48;11.60;;;9.55;;
24547;SDS011;12713;51.624;4.924;2023-05-07T02:55:14;11.52;;;8.68;;
24547;SDS011;12713;51.624;4.924;2023-05-07T02:57:41;16.33;;;12.50;;
24547;SDS011;12713;51.624;4.924;2023-05-07T03:00:10;10.70;;;9.27;;
24547;SDS011;12713;51.624;4.924;2023-05-07T03:02:37;17.17;;;11.75;;
24547;SDS011;12713;51.624;4.924;2023-05-07T03:05:03;13.40;;;9.93;;
24547;SDS011;12713;51.624;4.924;2023-05-07T03:07:29;13.05;;;10.85;;
24547;SDS011;12713;51.624;4.924;2023-05-07T03:09:55;11.88;;;10.73;;
24547;SDS011;12713;51.624;4.924;2023-05-07T03:12:21;14.35;;;11.40;;
24547;SDS011;12713;51.624;4.924;2023-05-07T03:14:47;13.75;;;12.02;;
24547;SDS011;12713;51.624;4.924;2023-05-07T03:17:13;11.85;;;9.75;;
24547;SDS011;12713;51.624;4.924;2023-05-07T03:19:39;17.52;;;13.77;;
24547;SDS011;12713;51.624;4.924;2023-05-07T03:22:05;13.70;;;11.38;;
24547;SDS011;12713;51.624;4.924;2023-05-07T03:24:31;19.17;;;14.93;;
24547;SDS011;12713;51.624;4.924;2023-05-07T03:26:57;15.05;;;11.55;;
24547;SDS011;12713;51.624;4.924;2023-05-07T03:29:23;16.50;;;13.40;;
24547;SDS011;12713;51.624;4.924;2023-05-07T03:31:49;12.23;;;10.27;;
24547;SDS011;12713;51.624;4.924;2023-05-07T03:34:15;14.57;;;13.00;;
24547;SDS011;12713;51.624;4.924;2023-05-07T03:36:42;16.02;;;13.20;;
24547;SDS011;12713;51.624;4.924;2023-05-07T03:39:08;17.10;;;12.40;;
24547;SDS011;12713;51.624;4.924;2023-05-07T03:41:34;12.40;;;11.10;;
24547;SDS011;12713;51.624;4.924;2023-05-07T03:44:00;13.82;;;12.10;;
24547;SDS011;12713;51.624;4.924;2023-05-07T03:46:26;14.55;;;13.05;;
24547;SDS011;12713;51.624;4.924;2023-05-07T03:48:53;15.18;;;11.55;;
24547;SDS011;12713;51.624;4.924;2023-05-07T03:51:19;18.52;;;14.30;;
24547;SDS011;12713;51.624;4.924;2023-05-07T03:53:45;16.23;;;12.45;;
24547;SDS011;12713;51.624;4.924;2023-05-07T03:56:11;13.27;;;11.55;;
24547;SDS011;12713;51.624;4.924;2023-05-07T03:58:37;14.80;;;13.05;;
24547;SDS011;12713;51.624;4.924;2023-05-07T04:01:03;13.15;;;10.65;;
24547;SDS011;12713;51.624;4.924;2023-05-07T04:03:29;20.88;;;15.10;;
24547;SDS011;12713;51.624;4.924;2023-05-07T04:05:55;19.20;;;13.68;;
24547;SDS011;12713;51.624;4.924;2023-05-07T04:08:21;13.48;;;12.18;;
24547;SDS011;12713;51.624;4.924;2023-05-07T04:10:47;16.23;;;14.43;;
24547;SDS011;12713;51.624;4.924;2023-05-07T04:13:13;17.48;;;14.90;;
24547;SDS011;12713;51.624;4.924;2023-05-07T04:15:39;17.30;;;14.98;;
24547;SDS011;12713;51.624;4.924;2023-05-07T04:18:05;16.02;;;14.15;;
24547;SDS011;12713;51.624;4.924;2023-05-07T04:20:33;18.13;;;15.32;;
24547;SDS011;12713;51.624;4.924;2023-05-07T04:23:01;17.25;;;14.10;;
24547;SDS011;12713;51.624;4.924;2023-05-07T04:25:27;16.10;;;14.40;;
24547;SDS011;12713;51.624;4.924;2023-05-07T04:27:53;16.17;;;13.10;;
24547;SDS011;12713;51.624;4.924;2023-05-07T04:30:19;17.77;;;12.75;;
24547;SDS011;12713;51.624;4.924;2023-05-07T04:32:45;12.95;;;11.65;;
24547;SDS011;12713;51.624;4.924;2023-05-07T04:35:12;14.43;;;12.15;;
24547;SDS011;12713;51.624;4.924;2023-05-07T04:37:39;13.70;;;11.52;;
24547;SDS011;12713;51.624;4.924;2023-05-07T04:40:05;18.10;;;14.88;;
24547;SDS011;12713;51.624;4.924;2023-05-07T04:42:32;18.63;;;14.48;;
24547;SDS011;12713;51.624;4.924;2023-05-07T04:44:58;18.77;;;16.80;;
24547;SDS011;12713;51.624;4.924;2023-05-07T04:47:25;17.83;;;14.40;;
24547;SDS011;12713;51.624;4.924;2023-05-07T04:49:51;15.75;;;13.52;;
24547;SDS011;12713;51.624;4.924;2023-05-07T04:52:17;16.90;;;14.15;;
24547;SDS011;12713;51.624;4.924;2023-05-07T04:54:43;16.52;;;14.05;;
24547;SDS011;12713;51.624;4.924;2023-05-07T04:57:09;18.23;;;14.45;;
24547;SDS011;12713;51.624;4.924;2023-05-07T04:59:35;19.92;;;15.43;;
24547;SDS011;12713;51.624;4.924;2023-05-07T05:02:01;18.17;;;15.63;;
24547;SDS011;12713;51.624;4.924;2023-05-07T05:04:29;21.17;;;16.40;;
24547;SDS011;12713;51.624;4.924;2023-05-07T05:06:55;19.88;;;17.27;;
24547;SDS011;12713;51.624;4.924;2023-05-07T05:09:21;21.95;;;19.25;;
24547;SDS011;12713;51.624;4.924;2023-05-07T05:11:47;25.00;;;21.95;;
24547;SDS011;12713;51.624;4.924;2023-05-07T05:14:13;23.02;;;20.20;;
24547;SDS011;12713;51.624;4.924;2023-05-07T05:16:39;21.05;;;18.85;;
24547;SDS011;12713;51.624;4.924;2023-05-07T05:19:05;24.98;;;18.52;;
24547;SDS011;12713;51.624;4.924;2023-05-07T05:21:31;22.65;;;20.30;;
24547;SDS011;12713;51.624;4.924;2023-05-07T05:23:58;26.83;;;20.98;;
24547;SDS011;12713;51.624;4.924;2023-05-07T05:26:24;23.98;;;20.55;;
24547;SDS011;12713;51.624;4.924;2023-05-07T05:28:49;27.42;;;23.52;;
24547;SDS011;12713;51.624;4.924;2023-05-07T05:31:16;24.23;;;20.00;;
24547;SDS011;12713;51.624;4.924;2023-05-07T05:33:42;27.77;;;24.35;;
24547;SDS011;12713;51.624;4.924;2023-05-07T05:36:11;28.35;;;22.52;;
24547;SDS011;12713;51.624;4.924;2023-05-07T05:38:38;25.35;;;19.73;;
24547;SDS011;12713;51.624;4.924;2023-05-07T05:41:04;26.55;;;22.73;;
24547;SDS011;12713;51.624;4.924;2023-05-07T05:43:30;24.63;;;20.83;;
24547;SDS011;12713;51.624;4.924;2023-05-07T05:45:56;24.48;;;21.63;;
24547;SDS011;12713;51.624;4.924;2023-05-07T05:48:23;26.85;;;22.65;;
24547;SDS011;12713;51.624;4.924;2023-05-07T05:50:49;25.58;;;21.98;;
24547;SDS011;12713;51.624;4.924;2023-05-07T05:53:15;30.60;;;23.02;;
24547;SDS011;12713;51.624;4.924;2023-05-07T05:55:41;24.95;;;19.30;;
24547;SDS011;12713;51.624;4.924;2023-05-07T05:58:07;24.50;;;21.08;;
24547;SDS011;12713;51.624;4.924;2023-05-07T06:00:34;24.30;;;21.67;;
24547;SDS011;12713;51.624;4.924;2023-05-07T06:03:00;30.75;;;22.58;;
24547;SDS011;12713;51.624;4.924;2023-05-07T06:05:26;28.58;;;21.98;;
24547;SDS011;12713;51.624;4.924;2023-05-07T06:07:52;32.55;;;24.92;;
24547;SDS011;12713;51.624;4.924;2023-05-07T06:10:18;29.90;;;26.73;;
24547;SDS011;12713;51.624;4.924;2023-05-07T06:12:44;31.38;;;25.15;;
24547;SDS011;12713;51.624;4.924;2023-05-07T06:15:10;34.85;;;28.52;;
24547;SDS011;12713;51.624;4.924;2023-05-07T06:17:36;32.53;;;27.13;;
24547;SDS011;12713;51.624;4.924;2023-05-07T06:20:02;34.45;;;27.23;;
24547;SDS011;12713;51.624;4.924;2023-05-07T06:22:29;33.63;;;26.88;;
24547;SDS011;12713;51.624;4.924;2023-05-07T06:24:55;33.45;;;26.73;;
24547;SDS011;12713;51.624;4.924;2023-05-07T06:27:21;36.80;;;30.40;;
24547;SDS011;12713;51.624;4.924;2023-05-07T06:29:47;32.42;;;28.00;;
24547;SDS011;12713;51.624;4.924;2023-05-07T06:32:14;33.67;;;27.73;;
24547;SDS011;12713;51.624;4.924;2023-05-07T06:34:40;35.10;;;27.58;;
24547;SDS011;12713;51.624;4.924;2023-05-07T06:37:06;32.33;;;27.50;;
24547;SDS011;12713;51.624;4.924;2023-05-07T06:39:32;40.38;;;31.77;;
24547;SDS011;12713;51.624;4.924;2023-05-07T06:41:59;31.10;;;27.73;;
24547;SDS011;12713;51.624;4.924;2023-05-07T06:44:25;36.22;;;30.30;;
24547;SDS011;12713;51.624;4.924;2023-05-07T06:46:51;40.67;;;31.33;;
24547;SDS011;12713;51.624;4.924;2023-05-07T06:49:17;40.42;;;32.70;;
24547;SDS011;12713;51.624;4.924;2023-05-07T06:51:43;40.55;;;31.90;;
24547;SDS011;12713;51.624;4.924;2023-05-07T06:54:09;37.88;;;32.42;;
24547;SDS011;12713;51.624;4.924;2023-05-07T06:56:35;38.15;;;31.98;;
24547;SDS011;12713;51.624;4.924;2023-05-07T06:59:02;41.50;;;33.97;;
24547;SDS011;12713;51.624;4.924;2023-05-07T07:01:28;43.45;;;35.22;;
24547;SDS011;12713;51.624;4.924;2023-05-07T07:03:54;42.22;;;33.75;;
24547;SDS011;12713;51.624;4.924;2023-05-07T07:06:20;38.30;;;32.65;;
24547;SDS011;12713;51.624;4.924;2023-05-07T07:08:46;42.38;;;34.05;;
24547;SDS011;12713;51.624;4.924;2023-05-07T07:11:12;38.15;;;33.22;;
24547;SDS011;12713;51.624;4.924;2023-05-07T07:13:38;42.38;;;35.42;;
24547;SDS011;12713;51.624;4.924;2023-05-07T07:16:05;41.38;;;34.80;;
24547;SDS011;12713;51.624;4.924;2023-05-07T07:18:31;40.17;;;35.67;;
24547;SDS011;12713;51.624;4.924;2023-05-07T07:20:57;37.50;;;31.80;;
24547;SDS011;12713;51.624;4.924;2023-05-07T07:23:24;44.88;;;38.70;;
24547;SDS011;12713;51.624;4.924;2023-05-07T07:25:50;48.33;;;35.88;;
24547;SDS011;12713;51.624;4.924;2023-05-07T07:28:16;39.92;;;35.25;;
24547;SDS011;12713;51.624;4.924;2023-05-07T07:30:42;43.60;;;36.88;;
24547;SDS011;12713;51.624;4.924;2023-05-07T07:33:09;43.63;;;36.83;;
24547;SDS011;12713;51.624;4.924;2023-05-07T07:35:35;39.63;;;33.33;;
24547;SDS011;12713;51.624;4.924;2023-05-07T07:38:01;41.40;;;36.67;;
24547;SDS011;12713;51.624;4.924;2023-05-07T07:40:27;42.15;;;33.47;;
24547;SDS011;12713;51.624;4.924;2023-05-07T07:42:53;44.50;;;36.65;;
24547;SDS011;12713;51.624;4.924;2023-05-07T07:45:19;42.53;;;34.30;;
24547;SDS011;12713;51.624;4.924;2023-05-07T07:47:46;36.45;;;32.50;;
24547;SDS011;12713;51.624;4.924;2023-05-07T07:50:12;40.15;;;33.40;;
24547;SDS011;12713;51.624;4.924;2023-05-07T07:52:38;36.28;;;31.88;;
24547;SDS011;12713;51.624;4.924;2023-05-07T07:55:04;36.70;;;32.22;;
24547;SDS011;12713;51.624;4.924;2023-05-07T07:57:30;42.78;;;34.28;;
24547;SDS011;12713;51.624;4.924;2023-05-07T07:59:56;38.85;;;33.67;;
24547;SDS011;12713;51.624;4.924;2023-05-07T08:02:22;35.05;;;31.25;;
24547;SDS011;12713;51.624;4.924;2023-05-07T08:04:48;35.55;;;31.63;;
24547;SDS011;12713;51.624;4.924;2023-05-07T08:07:14;36.00;;;32.08;;
24547;SDS011;12713;51.624;4.924;2023-05-07T08:09:43;37.13;;;31.13;;
24547;SDS011;12713;51.624;4.924;2023-05-07T08:12:09;35.10;;;31.42;;
24547;SDS011;12713;51.624;4.924;2023-05-07T08:14:35;38.97;;;31.20;;
24547;SDS011;12713;51.624;4.924;2023-05-07T08:17:02;36.28;;;30.88;;
24547;SDS011;12713;51.624;4.924;2023-05-07T08:19:28;37.72;;;32.13;;
24547;SDS011;12713;51.624;4.924;2023-05-07T08:21:54;37.13;;;31.33;;
24547;SDS011;12713;51.624;4.924;2023-05-07T08:24:20;34.35;;;29.88;;
24547;SDS011;12713;51.624;4.924;2023-05-07T08:26:46;33.83;;;30.17;;
24547;SDS011;12713;51.624;4.924;2023-05-07T08:29:12;32.70;;;29.35;;
24547;SDS011;12713;51.624;4.924;2023-05-07T08:31:38;32.38;;;28.98;;
24547;SDS011;12713;51.624;4.924;2023-05-07T08:34:05;35.83;;;32.13;;
24547;SDS011;12713;51.624;4.924;2023-05-07T08:36:31;32.85;;;29.38;;
24547;SDS011;12713;51.624;4.924;2023-05-07T08:38:57;30.58;;;27.42;;
24547;SDS011;12713;51.624;4.924;2023-05-07T08:41:23;31.88;;;27.02;;
24547;SDS011;12713;51.624;4.924;2023-05-07T08:43:50;31.67;;;25.90;;
24547;SDS011;12713;51.624;4.924;2023-05-07T08:46:17;29.00;;;25.90;;
24547;SDS011;12713;51.624;4.924;2023-05-07T08:48:44;28.30;;;24.75;;
24547;SDS011;12713;51.624;4.924;2023-05-07T08:51:13;28.13;;;25.13;;
24547;SDS011;12713;51.624;4.924;2023-05-07T08:53:40;28.63;;;25.73;;
24547;SDS011;12713;51.624;4.924;2023-05-07T08:56:07;25.92;;;22.80;;
24547;SDS011;12713;51.624;4.924;2023-05-07T08:58:33;27.50;;;24.35;;
24547;SDS011;12713;51.624;4.924;2023-05-07T09:01:18;26.65;;;23.73;;
24547;SDS011;12713;51.624;4.924;2023-05-07T09:03:44;26.63;;;23.92;;
24547;SDS011;12713;51.624;4.924;2023-05-07T09:06:11;27.17;;;24.08;;
24547;SDS011;12713;51.624;4.924;2023-05-07T09:08:37;27.77;;;24.13;;
24547;SDS011;12713;51.624;4.924;2023-05-07T09:11:03;29.20;;;23.48;;
24547;SDS011;12713;51.624;4.924;2023-05-07T09:13:29;23.75;;;21.30;;
24547;SDS011;12713;51.624;4.924;2023-05-07T09:15:55;23.60;;;21.27;;
24547;SDS011;12713;51.624;4.924;2023-05-07T09:18:23;23.27;;;20.33;;
24547;SDS011;12713;51.624;4.924;2023-05-07T09:20:50;23.95;;;21.35;;
24547;SDS011;12713;51.624;4.924;2023-05-07T09:23:16;24.73;;;20.25;;
24547;SDS011;12713;51.624;4.924;2023-05-07T09:25:42;19.30;;;17.02;;
24547;SDS011;12713;51.624;4.924;2023-05-07T09:28:08;19.00;;;16.15;;
24547;SDS011;12713;51.624;4.924;2023-05-07T09:30:35;19.17;;;17.08;;
24547;SDS011;12713;51.624;4.924;2023-05-07T09:33:02;19.13;;;15.70;;
24547;SDS011;12713;51.624;4.924;2023-05-07T09:35:29;18.00;;;16.10;;
24547;SDS011;12713;51.624;4.924;2023-05-07T09:37:56;17.40;;;14.00;;
24547;SDS011;12713;51.624;4.924;2023-05-07T09:40:23;15.27;;;12.77;;
24547;SDS011;12713;51.624;4.924;2023-05-07T09:42:49;15.27;;;12.57;;
24547;SDS011;12713;51.624;4.924;2023-05-07T09:45:16;17.67;;;14.40;;
24547;SDS011;12713;51.624;4.924;2023-05-07T09:47:46;18.38;;;14.48;;
24547;SDS011;12713;51.624;4.924;2023-05-07T09:50:14;18.35;;;14.23;;
24547;SDS011;12713;51.624;4.924;2023-05-07T09:52:41;16.90;;;15.07;;
24547;SDS011;12713;51.624;4.924;2023-05-07T09:55:07;15.00;;;13.50;;
24547;SDS011;12713;51.624;4.924;2023-05-07T09:57:34;14.93;;;13.27;;
24547;SDS011;12713;51.624;4.924;2023-05-07T10:00:01;18.60;;;14.95;;
24547;SDS011;12713;51.624;4.924;2023-05-07T10:02:29;15.35;;;13.80;;
24547;SDS011;12713;51.624;4.924;2023-05-07T10:04:56;15.23;;;13.23;;
24547;SDS011;12713;51.624;4.924;2023-05-07T10:07:22;19.08;;;14.13;;
24547;SDS011;12713;51.624;4.924;2023-05-07T10:09:49;15.25;;;11.98;;
24547;SDS011;12713;51.624;4.924;2023-05-07T10:12:15;15.40;;;11.05;;
24547;SDS011;12713;51.624;4.924;2023-05-07T10:14:43;17.50;;;13.00;;
24547;SDS011;12713;51.624;4.924;2023-05-07T10:17:09;15.23;;;13.00;;
24547;SDS011;12713;51.624;4.924;2023-05-07T10:19:37;16.75;;;12.80;;
24547;SDS011;12713;51.624;4.924;2023-05-07T10:22:05;16.33;;;13.20;;
24547;SDS011;12713;51.624;4.924;2023-05-07T10:24:32;15.45;;;13.70;;
24547;SDS011;12713;51.624;4.924;2023-05-07T10:26:59;16.23;;;13.38;;
24547;SDS011;12713;51.624;4.924;2023-05-07T10:32:17;12.05;;;10.88;;
24547;SDS011;12713;51.624;4.924;2023-05-07T10:34:53;12.75;;;11.45;;
24547;SDS011;12713;51.624;4.924;2023-05-07T10:37:20;15.63;;;11.32;;
24547;SDS011;12713;51.624;4.924;2023-05-07T10:39:46;14.65;;;12.10;;
24547;SDS011;12713;51.624;4.924;2023-05-07T10:42:13;16.33;;;12.90;;
24547;SDS011;12713;51.624;4.924;2023-05-07T10:44:40;12.63;;;11.35;;
24547;SDS011;12713;51.624;4.924;2023-05-07T10:47:06;15.55;;;11.68;;
24547;SDS011;12713;51.624;4.924;2023-05-07T10:49:34;16.17;;;11.05;;
24547;SDS011;12713;51.624;4.924;2023-05-07T10:52:14;18.00;;;10.88;;
24547;SDS011;12713;51.624;4.924;2023-05-07T10:54:43;13.60;;;10.32;;
24547;SDS011;12713;51.624;4.924;2023-05-07T10:57:32;13.45;;;11.02;;
24547;SDS011;12713;51.624;4.924;2023-05-07T11:00:00;17.67;;;13.02;;
24547;SDS011;12713;51.624;4.924;2023-05-07T11:03:04;17.02;;;15.23;;
24547;SDS011;12713;51.624;4.924;2023-05-07T11:05:19;18.60;;;14.98;;
24547;SDS011;12713;51.624;4.924;2023-05-07T11:07:53;21.33;;;15.07;;
24547;SDS011;12713;51.624;4.924;2023-05-07T11:10:20;17.50;;;14.00;;
24547;SDS011;12713;51.624;4.924;2023-05-07T11:12:47;16.05;;;12.38;;
24547;SDS011;12713;51.624;4.924;2023-05-07T11:15:13;16.60;;;14.35;;
24547;SDS011;12713;51.624;4.924;2023-05-07T11:17:52;18.40;;;14.23;;
24547;SDS011;12713;51.624;4.924;2023-05-07T11:20:18;19.27;;;14.82;;
24547;SDS011;12713;51.624;4.924;2023-05-07T11:22:45;16.77;;;13.75;;
24547;SDS011;12713;51.624;4.924;2023-05-07T11:25:11;15.98;;;13.68;;
24547;SDS011;12713;51.624;4.924;2023-05-07T11:27:46;14.98;;;13.25;;
24547;SDS011;12713;51.624;4.924;2023-05-07T11:30:18;18.02;;;13.90;;
24547;SDS011;12713;51.624;4.924;2023-05-07T11:32:48;15.20;;;12.70;;
24547;SDS011;12713;51.624;4.924;2023-05-07T11:35:14;19.15;;;14.52;;
24547;SDS011;12713;51.624;4.924;2023-05-07T11:37:41;17.40;;;15.13;;
24547;SDS011;12713;51.624;4.924;2023-05-07T11:40:08;15.00;;;13.43;;
24547;SDS011;12713;51.624;4.924;2023-05-07T11:42:38;21.45;;;14.43;;
24547;SDS011;12713;51.624;4.924;2023-05-07T11:45:05;18.05;;;14.07;;
24547;SDS011;12713;51.624;4.924;2023-05-07T11:47:31;17.55;;;13.80;;
24547;SDS011;12713;51.624;4.924;2023-05-07T11:50:02;15.23;;;11.90;;
24547;SDS011;12713;51.624;4.924;2023-05-07T11:52:28;17.85;;;11.93;;
24547;SDS011;12713;51.624;4.924;2023-05-07T11:54:55;16.73;;;11.85;;
24547;SDS011;12713;51.624;4.924;2023-05-07T11:57:22;17.02;;;11.45;;
24547;SDS011;12713;51.624;4.924;2023-05-07T11:59:48;15.90;;;11.57;;
24547;SDS011;12713;51.624;4.924;2023-05-07T12:02:14;16.88;;;12.20;;
24547;SDS011;12713;51.624;4.924;2023-05-07T12:04:40;15.65;;;12.10;;
24547;SDS011;12713;51.624;4.924;2023-05-07T12:07:16;15.40;;;12.02;;
24547;SDS011;12713;51.624;4.924;2023-05-07T12:09:43;16.75;;;13.05;;
24547;SDS011;12713;51.624;4.924;2023-05-07T12:12:09;16.23;;;12.80;;
24547;SDS011;12713;51.624;4.924;2023-05-07T12:14:39;19.65;;;10.88;;
24547;SDS011;12713;51.624;4.924;2023-05-07T12:17:05;12.68;;;9.57;;
24547;SDS011;12713;51.624;4.924;2023-05-07T12:19:31;18.13;;;14.40;;
24547;SDS011;12713;51.624;4.924;2023-05-07T12:21:59;15.60;;;13.75;;
24547;SDS011;12713;51.624;4.924;2023-05-07T12:24:25;17.70;;;14.05;;
24547;SDS011;12713;51.624;4.924;2023-05-07T12:26:51;16.67;;;13.95;;
24547;SDS011;12713;51.624;4.924;2023-05-07T12:29:21;19.08;;;14.35;;
24547;SDS011;12713;51.624;4.924;2023-05-07T12:31:47;17.60;;;13.98;;
24547;SDS011;12713;51.624;4.924;2023-05-07T12:34:15;23.02;;;13.43;;
24547;SDS011;12713;51.624;4.924;2023-05-07T12:36:41;14.05;;;12.52;;
24547;SDS011;12713;51.624;4.924;2023-05-07T12:39:07;17.23;;;13.32;;
24547;SDS011;12713;51.624;4.924;2023-05-07T12:44:21;17.77;;;11.88;;
24547;SDS011;12713;51.624;4.924;2023-05-07T12:46:47;19.50;;;11.32;;
24547;SDS011;12713;51.624;4.924;2023-05-07T12:49:13;13.70;;;10.40;;
24547;SDS011;12713;51.624;4.924;2023-05-07T12:51:40;13.23;;;9.80;;
24547;SDS011;12713;51.624;4.924;2023-05-07T12:54:06;33.60;;;13.43;;
24547;SDS011;12713;51.624;4.924;2023-05-07T12:56:35;14.52;;;9.38;;
24547;SDS011;12713;51.624;4.924;2023-05-07T12:59:01;11.75;;;10.00;;
24547;SDS011;12713;51.624;4.924;2023-05-07T13:01:29;11.63;;;9.48;;
24547;SDS011;12713;51.624;4.924;2023-05-07T13:03:55;12.63;;;9.52;;
24547;SDS011;12713;51.624;4.924;2023-05-07T13:06:22;10.27;;;7.70;;
24547;SDS011;12713;51.624;4.924;2023-05-07T13:08:48;13.23;;;7.88;;
24547;SDS011;12713;51.624;4.924;2023-05-07T13:11:14;12.65;;;8.15;;
24547;SDS011;12713;51.624;4.924;2023-05-07T13:13:40;13.63;;;7.47;;
24547;SDS011;12713;51.624;4.924;2023-05-07T13:16:08;10.30;;;7.25;;
24547;SDS011;12713;51.624;4.924;2023-05-07T13:18:34;11.20;;;7.65;;
24547;SDS011;12713;51.624;4.924;2023-05-07T13:21:01;12.75;;;7.35;;
24547;SDS011;12713;51.624;4.924;2023-05-07T13:23:27;13.85;;;8.13;;
24547;SDS011;12713;51.624;4.924;2023-05-07T13:25:53;14.38;;;7.13;;
24547;SDS011;12713;51.624;4.924;2023-05-07T13:28:20;13.77;;;6.13;;
24547;SDS011;12713;51.624;4.924;2023-05-07T13:30:47;10.05;;;6.90;;
24547;SDS011;12713;51.624;4.924;2023-05-07T13:33:13;12.88;;;7.32;;
24547;SDS011;12713;51.624;4.924;2023-05-07T13:35:40;11.65;;;8.57;;
24547;SDS011;12713;51.624;4.924;2023-05-07T13:38:06;15.00;;;13.27;;
24547;SDS011;12713;51.624;4.924;2023-05-07T13:40:33;17.10;;;13.98;;
24547;SDS011;12713;51.624;4.924;2023-05-07T13:42:59;17.75;;;13.48;;
24547;SDS011;12713;51.624;4.924;2023-05-07T13:45:27;15.75;;;13.00;;
24547;SDS011;12713;51.624;4.924;2023-05-07T13:47:54;20.42;;;12.50;;
24547;SDS011;12713;51.624;4.924;2023-05-07T13:50:20;17.33;;;13.02;;
24547;SDS011;12713;51.624;4.924;2023-05-07T13:52:47;15.70;;;13.52;;
24547;SDS011;12713;51.624;4.924;2023-05-07T13:55:18;21.10;;;13.57;;
24547;SDS011;12713;51.624;4.924;2023-05-07T13:57:45;13.82;;;12.38;;
24547;SDS011;12713;51.624;4.924;2023-05-07T14:00:11;16.17;;;13.07;;
24547;SDS011;12713;51.624;4.924;2023-05-07T14:02:38;18.38;;;13.63;;
24547;SDS011;12713;51.624;4.924;2023-05-07T14:05:04;17.23;;;12.63;;
24547;SDS011;12713;51.624;4.924;2023-05-07T14:07:30;16.15;;;13.00;;
24547;SDS011;12713;51.624;4.924;2023-05-07T14:09:57;19.50;;;14.45;;
24547;SDS011;12713;51.624;4.924;2023-05-07T14:12:23;16.52;;;13.50;;
24547;SDS011;12713;51.624;4.924;2023-05-07T14:14:49;17.15;;;13.98;;
24547;SDS011;12713;51.624;4.924;2023-05-07T14:17:16;20.52;;;13.68;;
24547;SDS011;12713;51.624;4.924;2023-05-07T14:19:42;20.88;;;14.60;;
24547;SDS011;12713;51.624;4.924;2023-05-07T14:22:08;19.42;;;15.23;;
24547;SDS011;12713;51.624;4.924;2023-05-07T14:24:34;17.90;;;16.00;;
24547;SDS011;12713;51.624;4.924;2023-05-07T14:27:00;20.42;;;17.80;;